sensor_id;sensor_type;location;lat;lon;timestamp;pressure;altitude;pressure_sealevel;temperature;humidity
11712;BME280;5912;51.034;6.984;2022-11-13T00:01:44;101261.97;;;6.08;92.83
11712;BME280;5912;51.034;6.984;2022-11-13T00:04:09;101264.06;;;6.04;93.08
11712;BME280;5912;51.034;6.984;2022-11-13T00:06:35;101258.19;;;6.02;92.78
11712;BME280;5912;51.034;6.984;2022-11-13T00:09:00;101259.50;;;5.98;92.58
11712;BME280;5912;51.034;6.984;2022-11-13T00:11:26;101272.66;;;5.96;92.76
11712;BME280;5912;51.034;6.984;2022-11-13T00:13:51;101245.53;;;5.81;93.12
11712;BME280;5912;51.034;6.984;2022-11-13T00:16:19;101266.97;;;5.93;93.26
11712;BME280;5912;51.034;6.984;2022-11-13T00:18:45;101261.56;;;5.86;93.36
11712;BME280;5912;51.034;6.984;2022-11-13T00:21:16;101260.06;;;5.84;93.34
11712;BME280;5912;51.034;6.984;2022-11-13T00:23:42;101258.91;;;5.78;94.01
11712;BME280;5912;51.034;6.984;2022-11-13T00:26:12;101266.88;;;5.77;94.06
11712;BME280;5912;51.034;6.984;2022-11-13T00:28:39;101261.16;;;5.73;94.31
11712;BME280;5912;51.034;6.984;2022-11-13T00:31:05;101253.63;;;5.70;93.84
11712;BME280;5912;51.034;6.984;2022-11-13T00:33:31;101242.84;;;5.65;94.14
11712;BME280;5912;51.034;6.984;2022-11-13T00:36:08;101248.59;;;5.69;94.08
11712;BME280;5912;51.034;6.984;2022-11-13T00:38:35;101252.47;;;5.65;94.02
11712;BME280;5912;51.034;6.984;2022-11-13T00:41:00;101251.81;;;5.63;94.24
11712;BME280;5912;51.034;6.984;2022-11-13T00:43:26;101245.94;;;5.61;94.56
11712;BME280;5912;51.034;6.984;2022-11-13T00:45:56;101233.06;;;5.59;94.12
11712;BME280;5912;51.034;6.984;2022-11-13T00:48:22;101228.97;;;5.57;94.62
11712;BME280;5912;51.034;6.984;2022-11-13T00:50:47;101231.25;;;5.52;94.58
11712;BME280;5912;51.034;6.984;2022-11-13T00:53:13;101237.72;;;5.48;94.71
11712;BME280;5912;51.034;6.984;2022-11-13T00:55:39;101218.75;;;5.38;94.50
11712;BME280;5912;51.034;6.984;2022-11-13T00:58:06;101225.13;;;5.35;94.97
11712;BME280;5912;51.034;6.984;2022-11-13T01:00:31;101221.84;;;5.33;95.32
11712;BME280;5912;51.034;6.984;2022-11-13T01:02:57;101216.13;;;5.30;95.14
11712;BME280;5912;51.034;6.984;2022-11-13T01:05:23;101216.06;;;5.22;95.49
11712;BME280;5912;51.034;6.984;2022-11-13T01:07:49;101222.88;;;5.15;95.60
11712;BME280;5912;51.034;6.984;2022-11-13T01:10:14;101187.22;;;4.90;95.43
11712;BME280;5912;51.034;6.984;2022-11-13T01:12:40;101221.31;;;5.04;95.77
11712;BME280;5912;51.034;6.984;2022-11-13T01:15:05;101215.63;;;5.01;96.29
11712;BME280;5912;51.034;6.984;2022-11-13T01:17:31;101214.13;;;4.98;96.88
11712;BME280;5912;51.034;6.984;2022-11-13T01:19:56;101219.81;;;4.94;96.71
11712;BME280;5912;51.034;6.984;2022-11-13T01:22:21;101219.28;;;4.90;96.84
11712;BME280;5912;51.034;6.984;2022-11-13T01:24:46;101215.53;;;4.85;97.21
11712;BME280;5912;51.034;6.984;2022-11-13T01:27:12;101218.72;;;4.79;97.25
11712;BME280;5912;51.034;6.984;2022-11-13T01:29:39;101206.59;;;4.70;97.21
11712;BME280;5912;51.034;6.984;2022-11-13T01:32:05;101205.06;;;4.59;97.35
11712;BME280;5912;51.034;6.984;2022-11-13T01:34:30;101215.03;;;4.64;97.65
11712;BME280;5912;51.034;6.984;2022-11-13T01:36:55;101213.84;;;4.58;98.00
11712;BME280;5912;51.034;6.984;2022-11-13T01:39:21;101176.38;;;4.33;98.04
11712;BME280;5912;51.034;6.984;2022-11-13T01:41:46;101208.13;;;4.54;98.54
11712;BME280;5912;51.034;6.984;2022-11-13T01:44:14;101208.44;;;4.51;98.62
11712;BME280;5912;51.034;6.984;2022-11-13T01:46:43;101204.19;;;4.50;98.63
11712;BME280;5912;51.034;6.984;2022-11-13T01:52:09;101193.13;;;4.48;99.12
11712;BME280;5912;51.034;6.984;2022-11-13T01:54:47;101188.03;;;4.47;99.08
11712;BME280;5912;51.034;6.984;2022-11-13T01:57:14;101191.91;;;4.43;98.50
11712;BME280;5912;51.034;6.984;2022-11-13T01:59:44;101181.13;;;4.38;99.25
11712;BME280;5912;51.034;6.984;2022-11-13T02:02:11;101185.00;;;4.34;99.47
11712;BME280;5912;51.034;6.984;2022-11-13T02:04:36;101143.31;;;4.08;99.91
11712;BME280;5912;51.034;6.984;2022-11-13T02:07:07;101180.22;;;4.29;99.68
11712;BME280;5912;51.034;6.984;2022-11-13T02:09:56;101169.19;;;4.27;99.61
11712;BME280;5912;51.034;6.984;2022-11-13T02:12:30;101167.69;;;4.25;99.56
11712;BME280;5912;51.034;6.984;2022-11-13T02:14:58;101164.94;;;4.26;100.00
11712;BME280;5912;51.034;6.984;2022-11-13T02:17:32;101172.56;;;4.28;100.00
11712;BME280;5912;51.034;6.984;2022-11-13T02:20:01;101175.03;;;4.29;100.00
11712;BME280;5912;51.034;6.984;2022-11-13T02:22:37;101166.81;;;4.34;100.00
11712;BME280;5912;51.034;6.984;2022-11-13T02:25:06;101162.75;;;4.39;100.00
11712;BME280;5912;51.034;6.984;2022-11-13T02:27:40;101169.31;;;4.43;100.00
11712;BME280;5912;51.034;6.984;2022-11-13T02:30:22;101151.59;;;4.47;100.00
11712;BME280;5912;51.034;6.984;2022-11-13T02:32:50;101152.28;;;4.49;100.00
11712;BME280;5912;51.034;6.984;2022-11-13T02:35:34;101141.06;;;4.48;99.81
11712;BME280;5912;51.034;6.984;2022-11-13T02:38:03;101141.09;;;4.56;99.68
11712;BME280;5912;51.034;6.984;2022-11-13T02:40:29;101144.38;;;4.58;99.63
11712;BME280;5912;51.034;6.984;2022-11-13T02:42:54;101139.31;;;4.57;99.06
11712;BME280;5912;51.034;6.984;2022-11-13T02:45:20;101141.09;;;4.56;99.37
11712;BME280;5912;51.034;6.984;2022-11-13T02:47:45;101138.00;;;4.53;99.05
11712;BME280;5912;51.034;6.984;2022-11-13T02:50:12;101141.41;;;4.53;99.00
11712;BME280;5912;51.034;6.984;2022-11-13T02:52:37;101134.19;;;4.47;99.01
11712;BME280;5912;51.034;6.984;2022-11-13T02:55:03;101131.13;;;4.52;98.93
11712;BME280;5912;51.034;6.984;2022-11-13T02:57:29;101135.56;;;4.51;98.58
11712;BME280;5912;51.034;6.984;2022-11-13T02:59:54;101121.66;;;4.43;99.04
11712;BME280;5912;51.034;6.984;2022-11-13T03:02:20;101131.91;;;4.44;98.69
11712;BME280;5912;51.034;6.984;2022-11-13T03:04:45;101131.53;;;4.39;98.47
11712;BME280;5912;51.034;6.984;2022-11-13T03:07:11;101121.06;;;4.31;98.36
11712;BME280;5912;51.034;6.984;2022-11-13T03:09:38;101129.41;;;4.35;98.78
11712;BME280;5912;51.034;6.984;2022-11-13T03:12:03;101127.25;;;4.30;98.97
11712;BME280;5912;51.034;6.984;2022-11-13T03:14:29;101127.03;;;4.24;98.88
11712;BME280;5912;51.034;6.984;2022-11-13T03:16:54;101123.38;;;4.17;98.95
11712;BME280;5912;51.034;6.984;2022-11-13T03:19:19;101127.56;;;4.10;98.86
11712;BME280;5912;51.034;6.984;2022-11-13T03:21:45;101126.50;;;4.03;99.58
11712;BME280;5912;51.034;6.984;2022-11-13T03:24:10;101092.19;;;3.82;99.61
11712;BME280;5912;51.034;6.984;2022-11-13T03:26:35;101114.56;;;3.92;99.36
11712;BME280;5912;51.034;6.984;2022-11-13T03:29:01;101116.94;;;3.86;99.44
11712;BME280;5912;51.034;6.984;2022-11-13T03:31:26;101125.34;;;3.80;99.86
11712;BME280;5912;51.034;6.984;2022-11-13T03:33:52;101118.13;;;3.74;99.55
11712;BME280;5912;51.034;6.984;2022-11-13T03:36:18;101122.50;;;3.73;100.00
11712;BME280;5912;51.034;6.984;2022-11-13T03:38:43;101121.53;;;3.74;100.00
11712;BME280;5912;51.034;6.984;2022-11-13T03:41:09;101121.53;;;3.74;100.00
11712;BME280;5912;51.034;6.984;2022-11-13T03:43:34;101125.09;;;3.73;100.00
11712;BME280;5912;51.034;6.984;2022-11-13T03:46:00;101127.31;;;3.68;100.00
11712;BME280;5912;51.034;6.984;2022-11-13T03:48:25;101119.28;;;3.62;100.00
11712;BME280;5912;51.034;6.984;2022-11-13T03:50:53;101123.97;;;3.58;99.93
11712;BME280;5912;51.034;6.984;2022-11-13T03:53:18;101120.31;;;3.51;99.88
11712;BME280;5912;51.034;6.984;2022-11-13T03:55:44;101117.09;;;3.40;100.00
11712;BME280;5912;51.034;6.984;2022-11-13T03:58:10;101108.91;;;3.35;99.56
11712;BME280;5912;51.034;6.984;2022-11-13T04:00:38;101114.25;;;3.33;99.85
11712;BME280;5912;51.034;6.984;2022-11-13T04:03:04;101116.31;;;3.30;100.00
11712;BME280;5912;51.034;6.984;2022-11-13T04:05:30;101100.09;;;3.28;100.00
11712;BME280;5912;51.034;6.984;2022-11-13T04:07:55;101101.28;;;3.33;100.00
11712;BME280;5912;51.034;6.984;2022-11-13T04:10:20;101107.94;;;3.36;100.00
11712;BME280;5912;51.034;6.984;2022-11-13T04:12:46;101101.94;;;3.35;100.00
11712;BME280;5912;51.034;6.984;2022-11-13T04:15:11;101100.03;;;3.37;100.00
11712;BME280;5912;51.034;6.984;2022-11-13T04:17:36;101097.56;;;3.36;100.00
11712;BME280;5912;51.034;6.984;2022-11-13T04:20:02;101101.94;;;3.35;100.00
11712;BME280;5912;51.034;6.984;2022-11-13T04:22:28;101103.03;;;3.33;100.00
11712;BME280;5912;51.034;6.984;2022-11-13T04:24:53;101093.78;;;3.30;100.00
11712;BME280;5912;51.034;6.984;2022-11-13T04:27:18;101094.88;;;3.28;100.00
11712;BME280;5912;51.034;6.984;2022-11-13T04:29:44;101070.50;;;3.11;100.00
11712;BME280;5912;51.034;6.984;2022-11-13T04:32:09;101088.88;;;3.27;100.00
11712;BME280;5912;51.034;6.984;2022-11-13T04:34:34;101079.56;;;3.25;100.00
11712;BME280;5912;51.034;6.984;2022-11-13T04:37:00;101085.97;;;3.30;100.00
11712;BME280;5912;51.034;6.984;2022-11-13T04:39:25;101080.34;;;3.35;100.00
11712;BME280;5912;51.034;6.984;2022-11-13T04:41:50;101077.59;;;3.36;100.00
11712;BME280;5912;51.034;6.984;2022-11-13T04:44:34;101075.69;;;3.38;99.82
11712;BME280;5912;51.034;6.984;2022-11-13T04:46:59;101071.16;;;3.40;100.00
11712;BME280;5912;51.034;6.984;2022-11-13T04:49:25;101061.56;;;3.41;99.94
11712;BME280;5912;51.034;6.984;2022-11-13T04:51:50;101061.72;;;3.39;99.76
11712;BME280;5912;51.034;6.984;2022-11-13T04:54:15;101063.38;;;3.40;100.00
11712;BME280;5912;51.034;6.984;2022-11-13T04:56:41;101058.97;;;3.41;100.00
11712;BME280;5912;51.034;6.984;2022-11-13T04:59:15;101043.91;;;3.44;99.91
11712;BME280;5912;51.034;6.984;2022-11-13T05:01:40;101046.81;;;3.41;99.59
11712;BME280;5912;51.034;6.984;2022-11-13T05:04:06;101042.44;;;3.42;99.61
11712;BME280;5912;51.034;6.984;2022-11-13T05:06:31;101041.31;;;3.44;99.29
11712;BME280;5912;51.034;6.984;2022-11-13T05:08:56;101043.06;;;3.44;98.95
11712;BME280;5912;51.034;6.984;2022-11-13T05:11:22;101038.84;;;3.43;98.37
11712;BME280;5912;51.034;6.984;2022-11-13T05:13:47;101040.31;;;3.45;98.61
11712;BME280;5912;51.034;6.984;2022-11-13T05:16:13;101048.94;;;3.46;97.87
11712;BME280;5912;51.034;6.984;2022-11-13T05:18:40;101041.44;;;3.43;98.15
11712;BME280;5912;51.034;6.984;2022-11-13T05:21:06;101047.94;;;3.39;98.47
11712;BME280;5912;51.034;6.984;2022-11-13T05:23:33;101029.56;;;3.23;98.15
11712;BME280;5912;51.034;6.984;2022-11-13T05:26:08;101044.25;;;3.32;98.59
11712;BME280;5912;51.034;6.984;2022-11-13T05:28:34;101048.13;;;3.28;97.96
11712;BME280;5912;51.034;6.984;2022-11-13T05:31:10;101045.66;;;3.26;98.30
11712;BME280;5912;51.034;6.984;2022-11-13T05:33:37;101046.25;;;3.20;98.80
11712;BME280;5912;51.034;6.984;2022-11-13T05:36:04;101049.97;;;3.18;98.26
11712;BME280;5912;51.034;6.984;2022-11-13T05:38:31;101008.28;;;2.92;97.57
11712;BME280;5912;51.034;6.984;2022-11-13T05:41:04;101037.84;;;3.09;97.70
11712;BME280;5912;51.034;6.984;2022-11-13T05:43:30;101038.94;;;3.06;97.95
11712;BME280;5912;51.034;6.984;2022-11-13T05:46:03;101040.88;;;3.04;98.55
11712;BME280;5912;51.034;6.984;2022-11-13T05:48:29;101035.31;;;2.99;98.30
11712;BME280;5912;51.034;6.984;2022-11-13T05:51:09;101021.94;;;2.94;98.41
11712;BME280;5912;51.034;6.984;2022-11-13T05:53:35;101026.75;;;2.89;98.71
11712;BME280;5912;51.034;6.984;2022-11-13T05:56:03;101015.28;;;2.82;98.12
11712;BME280;5912;51.034;6.984;2022-11-13T05:58:29;101001.97;;;2.67;98.40
11712;BME280;5912;51.034;6.984;2022-11-13T06:01:14;101010.81;;;2.74;98.93
11712;BME280;5912;51.034;6.984;2022-11-13T06:03:40;101009.59;;;2.69;98.66
11712;BME280;5912;51.034;6.984;2022-11-13T06:06:08;101011.16;;;2.62;98.12
11712;BME280;5912;51.034;6.984;2022-11-13T06:08:34;101018.84;;;2.54;98.57
11712;BME280;5912;51.034;6.984;2022-11-13T06:11:00;100999.31;;;2.50;98.67
11712;BME280;5912;51.034;6.984;2022-11-13T06:13:26;100991.16;;;2.45;98.78
11712;BME280;5912;51.034;6.984;2022-11-13T06:15:52;100976.28;;;2.37;99.50
11712;BME280;5912;51.034;6.984;2022-11-13T06:18:22;100976.28;;;2.37;99.70
11712;BME280;5912;51.034;6.984;2022-11-13T06:20:47;100983.94;;;2.39;99.35
11712;BME280;5912;51.034;6.984;2022-11-13T06:23:13;100980.81;;;2.35;99.62
11712;BME280;5912;51.034;6.984;2022-11-13T06:25:38;100980.13;;;2.33;100.00
11712;BME280;5912;51.034;6.984;2022-11-13T06:28:03;100978.38;;;2.34;100.00
11712;BME280;5912;51.034;6.984;2022-11-13T06:30:29;100951.94;;;2.21;100.00
11712;BME280;5912;51.034;6.984;2022-11-13T06:32:54;100973.19;;;2.34;100.00
11712;BME280;5912;51.034;6.984;2022-11-13T06:35:19;100969.91;;;2.32;100.00
11712;BME280;5912;51.034;6.984;2022-11-13T06:37:45;100954.13;;;2.16;100.00
11712;BME280;5912;51.034;6.984;2022-11-13T06:40:11;100974.69;;;2.27;100.00
11712;BME280;5912;51.034;6.984;2022-11-13T06:42:42;100978.66;;;2.21;100.00
11712;BME280;5912;51.034;6.984;2022-11-13T06:45:08;100969.69;;;2.16;99.70
11712;BME280;5912;51.034;6.984;2022-11-13T06:47:34;100964.25;;;2.09;99.89
11712;BME280;5912;51.034;6.984;2022-11-13T06:49:59;100970.66;;;2.05;99.79
11712;BME280;5912;51.034;6.984;2022-11-13T06:52:25;100961.53;;;2.01;100.00
11712;BME280;5912;51.034;6.984;2022-11-13T06:54:50;100961.69;;;2.00;100.00
11712;BME280;5912;51.034;6.984;2022-11-13T06:57:15;100970.41;;;1.99;99.91
11712;BME280;5912;51.034;6.984;2022-11-13T06:59:40;100963.59;;;1.98;100.00
11712;BME280;5912;51.034;6.984;2022-11-13T07:02:07;100964.56;;;1.97;100.00
11712;BME280;5912;51.034;6.984;2022-11-13T07:04:33;100967.28;;;1.95;100.00
11712;BME280;5912;51.034;6.984;2022-11-13T07:06:59;100972.31;;;1.97;99.72
11712;BME280;5912;51.034;6.984;2022-11-13T07:09:24;100980.09;;;1.97;99.87
11712;BME280;5912;51.034;6.984;2022-11-13T07:11:49;100972.31;;;1.97;99.63
11712;BME280;5912;51.034;6.984;2022-11-13T07:14:15;100966.19;;;1.98;99.36
11712;BME280;5912;51.034;6.984;2022-11-13T07:16:40;100969.16;;;2.03;100.00
11712;BME280;5912;51.034;6.984;2022-11-13T07:19:05;100969.56;;;2.08;99.56
11712;BME280;5912;51.034;6.984;2022-11-13T07:21:30;100971.59;;;2.14;98.94
11712;BME280;5912;51.034;6.984;2022-11-13T07:23:56;100925.28;;;1.92;99.34
11712;BME280;5912;51.034;6.984;2022-11-13T07:26:22;100969.66;;;2.25;99.43
11712;BME280;5912;51.034;6.984;2022-11-13T07:28:48;100968.00;;;2.34;99.01
11712;BME280;5912;51.034;6.984;2022-11-13T07:31:14;100956.38;;;2.38;99.11
11712;BME280;5912;51.034;6.984;2022-11-13T07:33:40;100958.78;;;2.49;99.24
11712;BME280;5912;51.034;6.984;2022-11-13T07:36:06;100922.94;;;2.35;99.15
11712;BME280;5912;51.034;6.984;2022-11-13T07:38:32;100955.84;;;2.61;98.38
11712;BME280;5912;51.034;6.984;2022-11-13T07:40:58;100960.97;;;2.71;98.00
11712;BME280;5912;51.034;6.984;2022-11-13T07:43:23;100951.66;;;2.78;98.02
11712;BME280;5912;51.034;6.984;2022-11-13T07:45:49;100953.38;;;2.87;97.34
11712;BME280;5912;51.034;6.984;2022-11-13T07:48:21;100948.13;;;2.96;97.88
11712;BME280;5912;51.034;6.984;2022-11-13T07:50:47;100940.56;;;3.03;96.74
11712;BME280;5912;51.034;6.984;2022-11-13T07:53:13;100952.00;;;3.10;96.45
11712;BME280;5912;51.034;6.984;2022-11-13T07:55:38;100950.44;;;3.17;97.06
11712;BME280;5912;51.034;6.984;2022-11-13T07:58:05;100945.31;;;3.25;96.38
11712;BME280;5912;51.034;6.984;2022-11-13T08:00:32;100944.72;;;3.31;96.00
11712;BME280;5912;51.034;6.984;2022-11-13T08:03:02;100940.72;;;3.37;95.82
11712;BME280;5912;51.034;6.984;2022-11-13T08:05:29;100953.34;;;3.49;96.27
11712;BME280;5912;51.034;6.984;2022-11-13T08:07:54;100939.00;;;3.45;95.77
11712;BME280;5912;51.034;6.984;2022-11-13T08:10:20;100919.72;;;3.48;94.71
11712;BME280;5912;51.034;6.984;2022-11-13T08:12:45;100926.66;;;3.65;94.91
11712;BME280;5912;51.034;6.984;2022-11-13T08:15:11;100940.84;;;3.96;94.30
11712;BME280;5912;51.034;6.984;2022-11-13T08:17:37;100942.25;;;4.16;93.31
11712;BME280;5912;51.034;6.984;2022-11-13T08:20:04;100939.97;;;4.46;91.79
11712;BME280;5912;51.034;6.984;2022-11-13T08:22:29;100932.59;;;4.76;89.73
11712;BME280;5912;51.034;6.984;2022-11-13T08:24:55;100927.44;;;5.08;87.22
11712;BME280;5912;51.034;6.984;2022-11-13T08:27:21;100928.81;;;5.36;86.39
11712;BME280;5912;51.034;6.984;2022-11-13T08:29:48;100930.25;;;5.62;85.62
11712;BME280;5912;51.034;6.984;2022-11-13T08:32:15;100880.56;;;5.64;84.01
11712;BME280;5912;51.034;6.984;2022-11-13T08:34:40;100922.53;;;6.17;82.41
11712;BME280;5912;51.034;6.984;2022-11-13T08:37:05;100921.00;;;6.39;81.11
11712;BME280;5912;51.034;6.984;2022-11-13T08:39:31;100912.28;;;6.54;80.67
11712;BME280;5912;51.034;6.984;2022-11-13T08:41:56;100918.31;;;6.85;80.42
11712;BME280;5912;51.034;6.984;2022-11-13T08:44:43;100908.53;;;7.10;77.96
11712;BME280;5912;51.034;6.984;2022-11-13T08:47:09;100907.88;;;7.30;77.04
11712;BME280;5912;51.034;6.984;2022-11-13T08:49:34;100908.22;;;7.50;75.45
11712;BME280;5912;51.034;6.984;2022-11-13T08:51:59;100914.38;;;7.72;75.00
11712;BME280;5912;51.034;6.984;2022-11-13T08:54:25;100890.75;;;7.80;73.58
11712;BME280;5912;51.034;6.984;2022-11-13T08:56:50;100901.97;;;8.03;71.06
11712;BME280;5912;51.034;6.984;2022-11-13T08:59:15;100900.53;;;8.15;70.83
11712;BME280;5912;51.034;6.984;2022-11-13T09:01:41;100896.66;;;8.11;71.02
11712;BME280;5912;51.034;6.984;2022-11-13T09:04:06;100901.88;;;7.96;71.26
11712;BME280;5912;51.034;6.984;2022-11-13T09:06:32;100899.69;;;7.71;71.21
11712;BME280;5912;51.034;6.984;2022-11-13T09:08:57;100892.13;;;7.38;70.83
11712;BME280;5912;51.034;6.984;2022-11-13T09:11:22;100892.13;;;7.16;69.38
11712;BME280;5912;51.034;6.984;2022-11-13T09:13:51;100878.69;;;7.04;70.29
11712;BME280;5912;51.034;6.984;2022-11-13T09:16:17;100884.34;;;7.30;72.19
11712;BME280;5912;51.034;6.984;2022-11-13T09:18:42;100888.69;;;7.75;69.98
11712;BME280;5912;51.034;6.984;2022-11-13T09:21:07;100885.28;;;8.18;68.67
11712;BME280;5912;51.034;6.984;2022-11-13T09:23:33;100886.75;;;8.71;68.16
11712;BME280;5912;51.034;6.984;2022-11-13T09:26:00;100864.00;;;9.14;66.37
11712;BME280;5912;51.034;6.984;2022-11-13T09:28:27;100881.22;;;9.71;64.71
11712;BME280;5912;51.034;6.984;2022-11-13T09:30:52;100886.00;;;10.23;62.93
11712;BME280;5912;51.034;6.984;2022-11-13T09:33:17;100880.50;;;10.59;59.96
11712;BME280;5912;51.034;6.984;2022-11-13T09:35:43;100861.38;;;10.84;59.39
11712;BME280;5912;51.034;6.984;2022-11-13T09:38:11;100884.09;;;11.24;56.06
11712;BME280;5912;51.034;6.984;2022-11-13T09:40:50;100870.34;;;11.35;54.76
11712;BME280;5912;51.034;6.984;2022-11-13T09:43:26;100887.56;;;11.77;54.50
11712;BME280;5912;51.034;6.984;2022-11-13T09:45:56;100882.03;;;12.11;53.50
11712;BME280;5912;51.034;6.984;2022-11-13T09:48:42;100882.06;;;12.55;52.94
11712;BME280;5912;51.034;6.984;2022-11-13T09:51:18;100878.03;;;12.90;51.60
11712;BME280;5912;51.034;6.984;2022-11-13T09:53:44;100873.75;;;13.27;51.90
11712;BME280;5912;51.034;6.984;2022-11-13T09:56:49;100880.31;;;13.67;49.90
11712;BME280;5912;51.034;6.984;2022-11-13T09:59:13;100874.50;;;14.01;47.84
11712;BME280;5912;51.034;6.984;2022-11-13T10:01:52;100881.88;;;14.35;47.24
11712;BME280;5912;51.034;6.984;2022-11-13T10:07:35;100871.69;;;14.98;45.64
11712;BME280;5912;51.034;6.984;2022-11-13T10:10:12;100870.13;;;15.32;43.54
11712;BME280;5912;51.034;6.984;2022-11-13T10:12:42;100855.47;;;15.47;42.13
11712;BME280;5912;51.034;6.984;2022-11-13T10:15:09;100818.25;;;15.42;41.85
11712;BME280;5912;51.034;6.984;2022-11-13T10:18:03;100874.00;;;15.82;41.14
11712;BME280;5912;51.034;6.984;2022-11-13T10:20:44;100864.56;;;15.74;40.86
11712;BME280;5912;51.034;6.984;2022-11-13T10:25:39;100860.16;;;15.45;39.67
11712;BME280;5912;51.034;6.984;2022-11-13T10:28:20;100858.63;;;15.26;39.89
11712;BME280;5912;51.034;6.984;2022-11-13T10:30:48;100836.88;;;14.83;40.24
11712;BME280;5912;51.034;6.984;2022-11-13T10:33:17;100852.84;;;14.76;40.84
11712;BME280;5912;51.034;6.984;2022-11-13T10:36:01;100844.53;;;14.73;40.74
11712;BME280;5912;51.034;6.984;2022-11-13T10:38:37;100844.91;;;14.76;41.83
11712;BME280;5912;51.034;6.984;2022-11-13T10:41:16;100837.22;;;14.87;41.58
11712;BME280;5912;51.034;6.984;2022-11-13T10:43:56;100836.19;;;14.88;41.15
11712;BME280;5912;51.034;6.984;2022-11-13T10:46:24;100830.22;;;14.92;40.64
11712;BME280;5912;51.034;6.984;2022-11-13T10:48:51;100823.19;;;14.86;39.93
11712;BME280;5912;51.034;6.984;2022-11-13T10:51:29;100817.31;;;14.84;40.55
11712;BME280;5912;51.034;6.984;2022-11-13T10:53:57;100819.38;;;14.82;41.17
11712;BME280;5912;51.034;6.984;2022-11-13T10:56:35;100802.75;;;14.63;41.82
11712;BME280;5912;51.034;6.984;2022-11-13T10:59:16;100803.28;;;14.54;41.89
11712;BME280;5912;51.034;6.984;2022-11-13T11:01:44;100795.25;;;14.49;41.84
11712;BME280;5912;51.034;6.984;2022-11-13T11:04:20;100796.41;;;14.53;42.31
11712;BME280;5912;51.034;6.984;2022-11-13T11:06:45;100768.19;;;14.47;41.54
11712;BME280;5912;51.034;6.984;2022-11-13T11:09:27;100787.38;;;14.72;41.35
11712;BME280;5912;51.034;6.984;2022-11-13T11:17:16;100775.47;;;15.27;39.85
11712;BME280;5912;51.034;6.984;2022-11-13T11:19:48;100775.81;;;15.31;40.55
11712;BME280;5912;51.034;6.984;2022-11-13T11:22:18;100774.09;;;15.36;39.92
11712;BME280;5912;51.034;6.984;2022-11-13T11:24:56;100754.28;;;15.27;38.91
11712;BME280;5912;51.034;6.984;2022-11-13T11:27:28;100763.50;;;15.36;37.91
11712;BME280;5912;51.034;6.984;2022-11-13T11:30:01;100758.22;;;15.36;38.49
11712;BME280;5912;51.034;6.984;2022-11-13T11:32:46;100753.69;;;15.37;39.04
11712;BME280;5912;51.034;6.984;2022-11-13T11:35:23;100752.00;;;15.42;38.37
11712;BME280;5912;51.034;6.984;2022-11-13T11:37:59;100746.38;;;15.39;38.78
11712;BME280;5912;51.034;6.984;2022-11-13T11:40:35;100737.91;;;15.30;38.25
11712;BME280;5912;51.034;6.984;2022-11-13T11:45:42;100720.06;;;14.79;38.37
11712;BME280;5912;51.034;6.984;2022-11-13T11:48:12;100719.94;;;14.63;39.90
11712;BME280;5912;51.034;6.984;2022-11-13T11:50:49;100714.38;;;14.53;39.48
11712;BME280;5912;51.034;6.984;2022-11-13T12:00:49;100685.81;;;14.32;40.38
11712;BME280;5912;51.034;6.984;2022-11-13T12:06:26;100696.97;;;14.34;39.61
11712;BME280;5912;51.034;6.984;2022-11-13T12:09:13;100697.53;;;14.24;39.35
11712;BME280;5912;51.034;6.984;2022-11-13T12:20:27;100670.19;;;13.83;40.55
11712;BME280;5912;51.034;6.984;2022-11-13T12:23:30;100660.91;;;13.80;41.77
11712;BME280;5912;51.034;6.984;2022-11-13T12:26:19;100663.53;;;13.80;41.73
11712;BME280;5912;51.034;6.984;2022-11-13T12:29:00;100646.16;;;13.73;41.36
11712;BME280;5912;51.034;6.984;2022-11-13T12:36:41;100640.38;;;13.64;42.19
11712;BME280;5912;51.034;6.984;2022-11-13T12:44:31;100625.19;;;13.60;41.76
11712;BME280;5912;51.034;6.984;2022-11-13T12:47:06;100624.84;;;13.56;42.00
11712;BME280;5912;51.034;6.984;2022-11-13T12:49:34;100597.44;;;13.39;41.61
11712;BME280;5912;51.034;6.984;2022-11-13T12:52:03;100618.97;;;13.54;40.70
11712;BME280;5912;51.034;6.984;2022-11-13T12:54:35;100614.72;;;13.53;41.40
11712;BME280;5912;51.034;6.984;2022-11-13T12:57:22;100610.66;;;13.51;41.61
11712;BME280;5912;51.034;6.984;2022-11-13T12:59:49;100604.25;;;13.47;42.75
11712;BME280;5912;51.034;6.984;2022-11-13T13:05:55;100591.25;;;13.45;43.15
11712;BME280;5912;51.034;6.984;2022-11-13T13:08:28;100591.47;;;13.44;42.57
11712;BME280;5912;51.034;6.984;2022-11-13T13:11:10;100591.25;;;13.45;42.76
11712;BME280;5912;51.034;6.984;2022-11-13T13:16:27;100587.47;;;13.82;41.14
11712;BME280;5912;51.034;6.984;2022-11-13T13:19:05;100577.50;;;14.37;40.55
11712;BME280;5912;51.034;6.984;2022-11-13T13:21:40;100577.50;;;14.83;38.78
11712;BME280;5912;51.034;6.984;2022-11-13T13:24:33;100572.13;;;15.29;39.64
11712;BME280;5912;51.034;6.984;2022-11-13T13:27:00;100568.94;;;15.55;39.70
11712;BME280;5912;51.034;6.984;2022-11-13T13:29:27;100562.56;;;15.68;40.05
11712;BME280;5912;51.034;6.984;2022-11-13T13:34:37;100556.63;;;15.77;40.33
11712;BME280;5912;51.034;6.984;2022-11-13T13:43:11;100556.97;;;15.13;40.29
11712;BME280;5912;51.034;6.984;2022-11-13T13:48:19;100551.66;;;14.50;41.05
11712;BME280;5912;51.034;6.984;2022-11-13T13:50:47;100533.66;;;14.06;41.34
11712;BME280;5912;51.034;6.984;2022-11-13T13:53:29;100547.66;;;13.95;42.23
11712;BME280;5912;51.034;6.984;2022-11-13T13:55:57;100550.28;;;13.84;43.16
11712;BME280;5912;51.034;6.984;2022-11-13T13:58:27;100551.03;;;13.73;42.21
11712;BME280;5912;51.034;6.984;2022-11-13T14:01:05;100535.41;;;13.60;41.08
11712;BME280;5912;51.034;6.984;2022-11-13T14:03:31;100553.16;;;13.53;40.88
11712;BME280;5912;51.034;6.984;2022-11-13T14:06:19;100550.91;;;13.38;42.10
11712;BME280;5912;51.034;6.984;2022-11-13T14:08:45;100543.53;;;13.28;43.04
11712;BME280;5912;51.034;6.984;2022-11-13T14:11:23;100512.03;;;12.97;43.86
11712;BME280;5912;51.034;6.984;2022-11-13T14:13:54;100535.69;;;12.86;44.45
11712;BME280;5912;51.034;6.984;2022-11-13T14:16:19;100532.03;;;12.69;45.52
11712;BME280;5912;51.034;6.984;2022-11-13T14:18:45;100517.94;;;12.39;46.44
11712;BME280;5912;51.034;6.984;2022-11-13T14:21:14;100520.00;;;12.12;47.28